sensor_id;sensor_type;location;lat;lon;timestamp;pressure;altitude;pressure_sealevel;temperature;humidity
55656;BME280;41530;52.382;5.270;2023-05-19T00:00:43;103049.94;;;19.30;41.41
55656;BME280;41530;52.382;5.270;2023-05-19T00:03:13;103044.72;;;19.28;41.62
55656;BME280;41530;52.382;5.270;2023-05-19T00:05:41;103048.25;;;19.29;41.75
55656;BME280;41530;52.382;5.270;2023-05-19T00:08:10;103046.53;;;19.28;41.73
55656;BME280;41530;52.382;5.270;2023-05-19T00:10:39;103038.63;;;19.26;41.72
55656;BME280;41530;52.382;5.270;2023-05-19T00:13:06;103040.44;;;19.26;41.68
55656;BME280;41530;52.382;5.270;2023-05-19T00:15:33;103034.25;;;19.25;41.71
55656;BME280;41530;52.382;5.270;2023-05-19T00:18:00;103037.03;;;19.23;41.67
55656;BME280;41530;52.382;5.270;2023-05-19T00:20:27;103040.56;;;19.24;41.72
55656;BME280;41530;52.382;5.270;2023-05-19T00:22:54;103040.66;;;19.22;41.72
55656;BME280;41530;52.382;5.270;2023-05-19T00:25:20;103034.38;;;19.23;41.75
55656;BME280;41530;52.382;5.270;2023-05-19T00:27:47;103038.97;;;19.21;41.64
55656;BME280;41530;52.382;5.270;2023-05-19T00:30:14;103032.88;;;19.19;41.78
55656;BME280;41530;52.382;5.270;2023-05-19T00:32:41;103037.47;;;19.17;41.72
55656;BME280;41530;52.382;5.270;2023-05-19T00:35:08;103034.78;;;19.17;41.74
55656;BME280;41530;52.382;5.270;2023-05-19T00:37:34;103032.25;;;19.16;41.82
55656;BME280;41530;52.382;5.270;2023-05-19T00:40:01;103031.41;;;19.15;41.67
55656;BME280;41530;52.382;5.270;2023-05-19T00:42:27;103032.38;;;19.14;41.91
55656;BME280;41530;52.382;5.270;2023-05-19T00:44:54;103035.03;;;19.14;41.87
55656;BME280;41530;52.382;5.270;2023-05-19T00:47:21;103028.94;;;19.12;41.95
55656;BME280;41530;52.382;5.270;2023-05-19T00:49:47;103026.28;;;19.12;41.82
55656;BME280;41530;52.382;5.270;2023-05-19T00:52:14;103030.88;;;19.10;41.93
55656;BME280;41530;52.382;5.270;2023-05-19T00:54:41;103026.38;;;19.11;41.80
55656;BME280;41530;52.382;5.270;2023-05-19T00:57:08;103021.16;;;19.09;41.86
55656;BME280;41530;52.382;5.270;2023-05-19T00:59:35;103026.50;;;19.09;41.88
55656;BME280;41530;52.382;5.270;2023-05-19T01:02:02;103026.69;;;19.06;41.87
55656;BME280;41530;52.382;5.270;2023-05-19T01:04:29;103028.50;;;19.06;41.84
55656;BME280;41530;52.382;5.270;2023-05-19T01:07:00;103022.47;;;19.04;41.97
55656;BME280;41530;52.382;5.270;2023-05-19T01:09:27;103027.91;;;19.02;41.91
55656;BME280;41530;52.382;5.270;2023-05-19T01:11:53;103030.56;;;19.02;41.87
55656;BME280;41530;52.382;5.270;2023-05-19T01:14:20;103024.38;;;19.02;42.06
55656;BME280;41530;52.382;5.270;2023-05-19T01:17:35;103024.38;;;19.02;41.84
55656;BME280;41530;52.382;5.270;2023-05-19T01:20:19;103020.09;;;18.99;41.77
55656;BME280;41530;52.382;5.270;2023-05-19T01:28:30;103009.66;;;18.96;41.88
55656;BME280;41530;52.382;5.270;2023-05-19T01:31:02;103008.91;;;18.94;41.99
55656;BME280;41530;52.382;5.270;2023-05-19T01:33:43;102984.25;;;18.78;42.07
55656;BME280;41530;52.382;5.270;2023-05-19T01:36:36;103004.00;;;18.88;42.09
55656;BME280;41530;52.382;5.270;2023-05-19T01:39:30;103008.16;;;18.92;42.00
55656;BME280;41530;52.382;5.270;2023-05-19T01:42:20;102968.59;;;18.73;41.99
55656;BME280;41530;52.382;5.270;2023-05-19T01:45:06;102977.38;;;18.75;41.97
55656;BME280;41530;52.382;5.270;2023-05-19T01:47:53;102995.25;;;18.86;42.05
55656;BME280;41530;52.382;5.270;2023-05-19T01:50:25;102976.41;;;18.76;41.97
55656;BME280;41530;52.382;5.270;2023-05-19T01:53:25;102991.94;;;18.82;42.01
55656;BME280;41530;52.382;5.270;2023-05-19T01:56:13;102988.22;;;18.85;42.23
55656;BME280;41530;52.382;5.270;2023-05-19T01:59:04;102961.03;;;18.67;42.01
55656;BME280;41530;52.382;5.270;2023-05-19T02:02:41;102972.34;;;18.71;42.09
55656;BME280;41530;52.382;5.270;2023-05-19T02:05:20;102967.97;;;18.70;42.10
55656;BME280;41530;52.382;5.270;2023-05-19T02:08:55;102975.22;;;18.68;42.21
55656;BME280;41530;52.382;5.270;2023-05-19T02:11:36;103001.13;;;18.78;42.19
55656;BME280;41530;52.382;5.270;2023-05-19T02:14:39;102997.59;;;18.78;42.24
55656;BME280;41530;52.382;5.270;2023-05-19T02:17:17;103006.59;;;18.77;42.31
55656;BME280;41530;52.382;5.270;2023-05-19T02:19:54;102971.38;;;18.59;42.25
55656;BME280;41530;52.382;5.270;2023-05-19T02:22:38;102980.88;;;18.63;42.34
55656;BME280;41530;52.382;5.270;2023-05-19T02:25:16;102971.47;;;18.58;42.24
55656;BME280;41530;52.382;5.270;2023-05-19T02:27:59;102986.63;;;18.70;42.30
55656;BME280;41530;52.382;5.270;2023-05-19T02:30:38;102961.09;;;18.53;42.40
55656;BME280;41530;52.382;5.270;2023-05-19T02:33:21;102961.97;;;18.53;42.36
55656;BME280;41530;52.382;5.270;2023-05-19T02:36:04;102957.47;;;18.54;42.25
55656;BME280;41530;52.382;5.270;2023-05-19T02:39:13;102946.22;;;18.50;42.19
55656;BME280;41530;52.382;5.270;2023-05-19T02:41:43;102953.97;;;18.53;42.24
55656;BME280;41530;52.382;5.270;2023-05-19T02:44:16;102941.94;;;18.48;42.31
55656;BME280;41530;52.382;5.270;2023-05-19T02:46:45;102934.03;;;18.46;42.17
55656;BME280;41530;52.382;5.270;2023-05-19T02:49:14;102963.09;;;18.64;42.39
55656;BME280;41530;52.382;5.270;2023-05-19T02:52:09;102932.53;;;18.42;42.20
55656;BME280;41530;52.382;5.270;2023-05-19T02:54:45;102944.72;;;18.46;42.38
55656;BME280;41530;52.382;5.270;2023-05-19T02:57:35;102952.69;;;18.46;42.31
55656;BME280;41530;52.382;5.270;2023-05-19T03:00:31;102954.06;;;18.52;42.46
55656;BME280;41530;52.382;5.270;2023-05-19T03:03:10;102963.66;;;18.55;42.35
55656;BME280;41530;52.382;5.270;2023-05-19T03:08:38;102952.06;;;18.43;42.48
55656;BME280;41530;52.382;5.270;2023-05-19T03:11:13;102944.16;;;18.41;42.38
55656;BME280;41530;52.382;5.270;2023-05-19T03:13:47;102942.44;;;18.40;42.35
55656;BME280;41530;52.382;5.270;2023-05-19T03:16:17;102932.66;;;18.41;42.44
55656;BME280;41530;52.382;5.270;2023-05-19T03:19:01;102959.41;;;18.52;42.37
55656;BME280;41530;52.382;5.270;2023-05-19T03:21:33;102945.66;;;18.45;42.44
55656;BME280;41530;52.382;5.270;2023-05-19T03:24:08;102930.44;;;18.35;42.29
55656;BME280;41530;52.382;5.270;2023-05-19T03:26:43;102937.47;;;18.36;42.32
55656;BME280;41530;52.382;5.270;2023-05-19T03:29:21;102939.03;;;18.38;42.45
55656;BME280;41530;52.382;5.270;2023-05-19T03:32:00;102942.56;;;18.39;42.56
55656;BME280;41530;52.382;5.270;2023-05-19T03:34:37;102937.38;;;18.37;42.41
55656;BME280;41530;52.382;5.270;2023-05-19T03:37:10;102925.50;;;18.29;42.45
55656;BME280;41530;52.382;5.270;2023-05-19T03:40:15;102921.03;;;18.29;42.66
55656;BME280;41530;52.382;5.270;2023-05-19T03:42:55;102919.13;;;18.31;42.40
55656;BME280;41530;52.382;5.270;2023-05-19T03:45:30;102936.72;;;18.34;42.61
55656;BME280;41530;52.382;5.270;2023-05-19T03:48:21;102937.22;;;18.39;42.53
55656;BME280;41530;52.382;5.270;2023-05-19T03:50:50;102919.44;;;18.27;42.53
55656;BME280;41530;52.382;5.270;2023-05-19T03:53:28;102952.91;;;18.43;42.56
55656;BME280;41530;52.382;5.270;2023-05-19T03:56:28;102923.91;;;18.26;42.61
55656;BME280;41530;52.382;5.270;2023-05-19T03:58:58;102934.81;;;18.36;42.50
55656;BME280;41530;52.382;5.270;2023-05-19T04:01:40;102933.00;;;18.36;42.55
55656;BME280;41530;52.382;5.270;2023-05-19T04:04:16;102913.69;;;18.20;42.67
55656;BME280;41530;52.382;5.270;2023-05-19T04:06:52;102939.47;;;18.32;42.50
55656;BME280;41530;52.382;5.270;2023-05-19T04:09:38;102919.88;;;18.21;42.78
55656;BME280;41530;52.382;5.270;2023-05-19T04:12:21;102941.28;;;18.32;42.68
55656;BME280;41530;52.382;5.270;2023-05-19T04:15:00;102917.31;;;18.19;42.46
55656;BME280;41530;52.382;5.270;2023-05-19T04:17:43;102934.66;;;18.25;42.68
55656;BME280;41530;52.382;5.270;2023-05-19T04:20:41;102943.09;;;18.31;42.79
55656;BME280;41530;52.382;5.270;2023-05-19T04:23:12;102962.50;;;18.33;42.62
55656;BME280;41530;52.382;5.270;2023-05-19T04:25:43;102932.53;;;18.17;42.63
55656;BME280;41530;52.382;5.270;2023-05-19T04:28:28;102948.13;;;18.23;42.70
55656;BME280;41530;52.382;5.270;2023-05-19T04:31:18;102935.97;;;18.19;42.77
55656;BME280;41530;52.382;5.270;2023-05-19T04:33:51;102940.22;;;18.22;42.53
55656;BME280;41530;52.382;5.270;2023-05-19T04:36:33;102936.81;;;18.20;42.83
55656;BME280;41530;52.382;5.270;2023-05-19T04:39:05;102942.03;;;18.21;42.72
55656;BME280;41530;52.382;5.270;2023-05-19T04:42:03;102959.09;;;18.31;42.79
55656;BME280;41530;52.382;5.270;2023-05-19T04:44:30;102942.13;;;18.20;42.97
55656;BME280;41530;52.382;5.270;2023-05-19T04:47:00;102939.47;;;18.20;42.75
55656;BME280;41530;52.382;5.270;2023-05-19T04:49:31;102947.88;;;18.26;42.77
55656;BME280;41530;52.382;5.270;2023-05-19T04:55:28;102954.81;;;18.29;42.75
55656;BME280;41530;52.382;5.270;2023-05-19T04:58:09;102943.94;;;18.19;42.91
55656;BME280;41530;52.382;5.270;2023-05-19T05:00:55;102936.38;;;18.13;42.73
55656;BME280;41530;52.382;5.270;2023-05-19T05:03:34;102936.59;;;18.10;42.96
55656;BME280;41530;52.382;5.270;2023-05-19T05:06:20;102935.59;;;18.11;42.97
55656;BME280;41530;52.382;5.270;2023-05-19T05:09:21;102952.03;;;18.17;42.96
55656;BME280;41530;52.382;5.270;2023-05-19T05:11:52;102942.34;;;18.16;42.73
55656;BME280;41530;52.382;5.270;2023-05-19T05:14:30;102946.91;;;18.14;42.77
55656;BME280;41530;52.382;5.270;2023-05-19T05:17:04;102962.06;;;18.27;42.98
55656;BME280;41530;52.382;5.270;2023-05-19T05:19:32;102945.09;;;18.15;42.95
55656;BME280;41530;52.382;5.270;2023-05-19T05:22:25;102961.00;;;18.29;42.90
55656;BME280;41530;52.382;5.270;2023-05-19T05:25:01;102957.19;;;18.33;43.03
55656;BME280;41530;52.382;5.270;2023-05-19T05:27:37;102948.53;;;18.30;42.90
55656;BME280;41530;52.382;5.270;2023-05-19T05:30:15;102954.31;;;18.36;42.75
55656;BME280;41530;52.382;5.270;2023-05-19T05:32:58;102952.38;;;18.38;42.75
55656;BME280;41530;52.382;5.270;2023-05-19T05:35:29;102964.97;;;18.49;42.67
55656;BME280;41530;52.382;5.270;2023-05-19T05:38:09;102959.00;;;18.45;42.63
55656;BME280;41530;52.382;5.270;2023-05-19T05:40:44;102962.06;;;18.52;42.56
55656;BME280;41530;52.382;5.270;2023-05-19T05:43:18;102968.91;;;18.56;42.52
55656;BME280;41530;52.382;5.270;2023-05-19T05:45:53;102980.34;;;18.71;42.41
55656;BME280;41530;52.382;5.270;2023-05-19T05:48:22;102959.09;;;18.57;42.55
55656;BME280;41530;52.382;5.270;2023-05-19T05:54:30;102952.28;;;18.65;42.44
55656;BME280;41530;52.382;5.270;2023-05-19T05:57:00;102954.94;;;18.65;42.46
55656;BME280;41530;52.382;5.270;2023-05-19T05:59:36;102949.84;;;18.62;42.63
55656;BME280;41530;52.382;5.270;2023-05-19T06:02:16;102955.59;;;18.69;42.30
55656;BME280;41530;52.382;5.270;2023-05-19T06:04:50;102966.25;;;18.81;42.53
55656;BME280;41530;52.382;5.270;2023-05-19T06:07:28;102959.31;;;18.79;42.39
55656;BME280;41530;52.382;5.270;2023-05-19T06:10:00;102976.13;;;18.92;42.34
55656;BME280;41530;52.382;5.270;2023-05-19T06:12:47;102956.53;;;18.80;42.35
55656;BME280;41530;52.382;5.270;2023-05-19T06:15:33;102956.31;;;18.83;42.36
55656;BME280;41530;52.382;5.270;2023-05-19T06:18:28;102966.44;;;18.91;42.46
55656;BME280;41530;52.382;5.270;2023-05-19T06:21:09;102957.47;;;18.92;42.25
55656;BME280;41530;52.382;5.270;2023-05-19T06:24:02;102954.94;;;18.91;42.19
55656;BME280;41530;52.382;5.270;2023-05-19T06:26:31;102963.97;;;19.01;42.46
55656;BME280;41530;52.382;5.270;2023-05-19T06:29:15;102959.25;;;19.04;42.31
55656;BME280;41530;52.382;5.270;2023-05-19T06:31:58;102965.22;;;19.08;42.29
55656;BME280;41530;52.382;5.270;2023-05-19T06:34:35;102971.22;;;19.11;42.25
55656;BME280;41530;52.382;5.270;2023-05-19T06:37:12;102961.59;;;19.09;42.28
55656;BME280;41530;52.382;5.270;2023-05-19T06:39:57;102953.28;;;19.13;42.34
55656;BME280;41530;52.382;5.270;2023-05-19T06:42:24;102943.47;;;19.14;42.33
55656;BME280;41530;52.382;5.270;2023-05-19T06:45:01;102948.44;;;19.18;42.03
55656;BME280;41530;52.382;5.270;2023-05-19T06:47:41;102948.13;;;19.23;42.28
55656;BME280;41530;52.382;5.270;2023-05-19T06:50:37;102953.97;;;19.28;42.24
55656;BME280;41530;52.382;5.270;2023-05-19T06:53:20;102976.03;;;19.43;42.07
55656;BME280;41530;52.382;5.270;2023-05-19T06:56:00;102957.03;;;19.35;42.18
55656;BME280;41530;52.382;5.270;2023-05-19T07:01:36;102963.75;;;19.40;42.21
55656;BME280;41530;52.382;5.270;2023-05-19T07:04:05;102968.72;;;19.45;42.07
55656;BME280;41530;52.382;5.270;2023-05-19T07:06:38;102951.38;;;19.39;42.25
55656;BME280;41530;52.382;5.270;2023-05-19T07:09:12;102950.19;;;19.43;42.14
55656;BME280;41530;52.382;5.270;2023-05-19T07:11:48;102951.63;;;19.47;41.92
55656;BME280;41530;52.382;5.270;2023-05-19T07:14:28;102946.53;;;19.44;41.77
55656;BME280;41530;52.382;5.270;2023-05-19T07:16:56;102959.13;;;19.55;42.01
55656;BME280;41530;52.382;5.270;2023-05-19T07:19:35;102966.69;;;19.61;41.93
55656;BME280;41530;52.382;5.270;2023-05-19T07:22:15;102958.16;;;19.56;41.67
55656;BME280;41530;52.382;5.270;2023-05-19T07:25:17;102943.44;;;19.50;41.50
55656;BME280;41530;52.382;5.270;2023-05-19T07:28:11;102960.38;;;19.62;41.56
55656;BME280;41530;52.382;5.270;2023-05-19T07:31:15;102960.53;;;19.72;41.69
55656;BME280;41530;52.382;5.270;2023-05-19T07:34:15;102956.78;;;19.74;41.73
55656;BME280;41530;52.382;5.270;2023-05-19T07:37:15;102950.22;;;19.67;41.66
55656;BME280;41530;52.382;5.270;2023-05-19T07:40:12;102951.66;;;19.71;41.59
55656;BME280;41530;52.382;5.270;2023-05-19T07:43:28;102977.84;;;19.90;41.36
55656;BME280;41530;52.382;5.270;2023-05-19T07:46:09;102937.34;;;19.72;41.71
55656;BME280;41530;52.382;5.270;2023-05-19T07:48:57;102936.03;;;19.78;41.63
55656;BME280;41530;52.382;5.270;2023-05-19T07:51:40;102947.84;;;19.86;41.27
55656;BME280;41530;52.382;5.270;2023-05-19T07:54:28;102958.69;;;19.96;41.57
55656;BME280;41530;52.382;5.270;2023-05-19T07:57:29;102949.34;;;20.02;41.27
55656;BME280;41530;52.382;5.270;2023-05-19T07:59:59;102954.56;;;20.03;41.31
55656;BME280;41530;52.382;5.270;2023-05-19T08:02:46;102943.75;;;19.93;41.03
55656;BME280;41530;52.382;5.270;2023-05-19T08:05:38;102933.81;;;19.96;40.94
55656;BME280;41530;52.382;5.270;2023-05-19T08:08:14;102925.78;;;19.96;41.33
55656;BME280;41530;52.382;5.270;2023-05-19T08:10:52;102939.41;;;20.04;41.14
55656;BME280;41530;52.382;5.270;2023-05-19T08:13:29;102932.34;;;20.03;40.95
55656;BME280;41530;52.382;5.270;2023-05-19T08:16:27;102926.16;;;20.02;40.81
55656;BME280;41530;52.382;5.270;2023-05-19T08:19:02;102943.78;;;20.16;41.29
55656;BME280;41530;52.382;5.270;2023-05-19T08:21:33;102935.41;;;20.09;41.28
55656;BME280;41530;52.382;5.270;2023-05-19T08:24:06;102930.06;;;20.09;41.34
55656;BME280;41530;52.382;5.270;2023-05-19T08:26:44;102936.97;;;20.12;41.18
55656;BME280;41530;52.382;5.270;2023-05-19T08:29:20;102939.06;;;20.19;41.56
55656;BME280;41530;52.382;5.270;2023-05-19T08:31:52;102920.25;;;20.10;41.26
55656;BME280;41530;52.382;5.270;2023-05-19T08:34:54;102939.44;;;20.26;41.19
55656;BME280;41530;52.382;5.270;2023-05-19T08:37:28;102932.88;;;20.30;41.27
55656;BME280;41530;52.382;5.270;2023-05-19T08:40:19;102910.03;;;20.15;41.27
55656;BME280;41530;52.382;5.270;2023-05-19T08:43:03;102916.22;;;20.26;41.33
55656;BME280;41530;52.382;5.270;2023-05-19T08:45:35;102907.13;;;20.29;40.97
55656;BME280;41530;52.382;5.270;2023-05-19T08:48:22;102904.44;;;20.29;41.09
55656;BME280;41530;52.382;5.270;2023-05-19T08:57:29;102900.69;;;20.32;41.13
55656;BME280;41530;52.382;5.270;2023-05-19T09:00:40;102893.53;;;20.32;41.05
55656;BME280;41530;52.382;5.270;2023-05-19T09:03:15;102889.88;;;20.33;41.16
55656;BME280;41530;52.382;5.270;2023-05-19T09:06:00;102887.22;;;20.33;40.98
55656;BME280;41530;52.382;5.270;2023-05-19T09:08:41;102913.00;;;20.45;40.83
55656;BME280;41530;52.382;5.270;2023-05-19T09:11:50;102889.16;;;20.31;40.72
55656;BME280;41530;52.382;5.270;2023-05-19T09:14:34;102887.44;;;20.30;41.09
55656;BME280;41530;52.382;5.270;2023-05-19T09:17:33;102881.97;;;20.32;40.89
55656;BME280;41530;52.382;5.270;2023-05-19T09:20:20;102882.09;;;20.30;40.75
55656;BME280;41530;52.382;5.270;2023-05-19T09:23:06;102873.84;;;20.33;40.51
55656;BME280;41530;52.382;5.270;2023-05-19T09:26:07;102876.41;;;20.35;40.62
55656;BME280;41530;52.382;5.270;2023-05-19T09:28:53;102879.56;;;20.40;40.29
55656;BME280;41530;52.382;5.270;2023-05-19T09:31:30;102876.31;;;20.36;40.66
55656;BME280;41530;52.382;5.270;2023-05-19T09:34:23;102903.41;;;20.54;40.40
55656;BME280;41530;52.382;5.270;2023-05-19T09:37:09;102874.22;;;20.40;40.61
55656;BME280;41530;52.382;5.270;2023-05-19T09:46:50;102892.94;;;20.51;40.59
55656;BME280;41530;52.382;5.270;2023-05-19T09:49:49;102871.31;;;20.43;40.50
55656;BME280;41530;52.382;5.270;2023-05-19T09:53:02;102875.69;;;20.44;40.43
55656;BME280;41530;52.382;5.270;2023-05-19T09:56:15;102898.44;;;20.60;40.36
55656;BME280;41530;52.382;5.270;2023-05-19T09:59:15;102879.00;;;20.47;40.23
55656;BME280;41530;52.382;5.270;2023-05-19T10:01:56;102880.44;;;20.51;40.61
55656;BME280;41530;52.382;5.270;2023-05-19T10:05:11;102882.84;;;20.54;40.61
55656;BME280;41530;52.382;5.270;2023-05-19T10:08:02;102875.81;;;20.53;40.49
55656;BME280;41530;52.382;5.270;2023-05-19T10:10:59;102866.59;;;20.46;39.94
55656;BME280;41530;52.382;5.270;2023-05-19T10:13:59;102877.03;;;20.49;40.38
55656;BME280;41530;52.382;5.270;2023-05-19T10:16:40;102880.56;;;20.61;40.37
55656;BME280;41530;52.382;5.270;2023-05-19T10:26:36;102847.88;;;20.46;40.10
55656;BME280;41530;52.382;5.270;2023-05-19T10:29:23;102868.28;;;20.58;39.83
55656;BME280;41530;52.382;5.270;2023-05-19T10:39:04;102847.75;;;20.59;41.07
55656;BME280;41530;52.382;5.270;2023-05-19T10:48:25;102826.22;;;20.60;40.54
55656;BME280;41530;52.382;5.270;2023-05-19T10:51:16;102835.09;;;20.61;39.91
55656;BME280;41530;52.382;5.270;2023-05-19T10:54:00;102854.66;;;20.73;40.12
55656;BME280;41530;52.382;5.270;2023-05-19T10:57:01;102835.69;;;20.64;39.81
55656;BME280;41530;52.382;5.270;2023-05-19T11:00:03;102854.13;;;20.79;40.96
55656;BME280;41530;52.382;5.270;2023-05-19T11:03:19;102851.94;;;20.84;41.15
55656;BME280;41530;52.382;5.270;2023-05-19T11:06:36;102824.63;;;20.69;39.97
55656;BME280;41530;52.382;5.270;2023-05-19T11:09:31;102841.16;;;20.74;40.58
55656;BME280;41530;52.382;5.270;2023-05-19T11:12:29;102842.47;;;20.80;40.84
55656;BME280;41530;52.382;5.270;2023-05-19T11:15:34;102832.03;;;20.77;40.44
55656;BME280;41530;52.382;5.270;2023-05-19T11:18:14;102821.81;;;20.71;40.76
55656;BME280;41530;52.382;5.270;2023-05-19T11:20:56;102827.66;;;20.76;41.09
55656;BME280;41530;52.382;5.270;2023-05-19T11:24:10;102830.34;;;20.76;40.96
55656;BME280;41530;52.382;5.270;2023-05-19T11:32:52;102819.34;;;20.79;41.31
55656;BME280;41530;52.382;5.270;2023-05-19T11:35:35;102820.94;;;20.81;40.82
55656;BME280;41530;52.382;5.270;2023-05-19T11:38:20;102818.03;;;20.84;41.43
55656;BME280;41530;52.382;5.270;2023-05-19T11:41:00;102808.16;;;20.85;41.37
55656;BME280;41530;52.382;5.270;2023-05-19T11:43:49;102813.28;;;20.88;41.15
55656;BME280;41530;52.382;5.270;2023-05-19T11:46:26;102808.16;;;20.85;41.46
55656;BME280;41530;52.382;5.270;2023-05-19T11:49:08;102812.88;;;20.92;41.59
55656;BME280;41530;52.382;5.270;2023-05-19T11:52:16;102800.03;;;20.86;41.11
55656;BME280;41530;52.382;5.270;2023-05-19T11:56:02;102815.19;;;20.97;40.83
55656;BME280;41530;52.382;5.270;2023-05-19T11:58:57;102812.03;;;20.92;40.88
55656;BME280;41530;52.382;5.270;2023-05-19T12:01:35;102819.44;;;20.99;41.27
55656;BME280;41530;52.382;5.270;2023-05-19T12:04:31;102825.84;;;21.08;41.34
55656;BME280;41530;52.382;5.270;2023-05-19T12:07:10;102800.22;;;20.94;41.35
55656;BME280;41530;52.382;5.270;2023-05-19T12:10:14;102824.75;;;21.11;40.53
55656;BME280;41530;52.382;5.270;2023-05-19T12:13:13;102814.34;;;20.96;40.80
55656;BME280;41530;52.382;5.270;2023-05-19T12:15:50;102807.41;;;20.94;40.31
55656;BME280;41530;52.382;5.270;2023-05-19T12:19:04;102815.38;;;21.05;41.31
55656;BME280;41530;52.382;5.270;2023-05-19T12:22:02;102803.56;;;21.08;41.18
55656;BME280;41530;52.382;5.270;2023-05-19T12:24:40;102799.94;;;21.09;40.84
55656;BME280;41530;52.382;5.270;2023-05-19T12:27:23;102781.13;;;20.99;41.16
55656;BME280;41530;52.382;5.270;2023-05-19T12:30:31;102771.38;;;20.98;41.20
55656;BME280;41530;52.382;5.270;2023-05-19T12:41:09;102796.16;;;21.11;39.76
55656;BME280;41530;52.382;5.270;2023-05-19T12:44:29;102767.88;;;20.97;39.96
55656;BME280;41530;52.382;5.270;2023-05-19T12:47:52;102764.34;;;20.97;40.64
55656;BME280;41530;52.382;5.270;2023-05-19T12:50:41;102778.50;;;21.09;40.54
55656;BME280;41530;52.382;5.270;2023-05-19T12:53:37;102763.13;;;21.01;40.31
55656;BME280;41530;52.382;5.270;2023-05-19T12:56:59;102782.25;;;21.17;40.89
55656;BME280;41530;52.382;5.270;2023-05-19T13:00:25;102789.69;;;21.25;40.74
55656;BME280;41530;52.382;5.270;2023-05-19T13:03:26;102779.84;;;21.14;40.06
55656;BME280;41530;52.382;5.270;2023-05-19T13:05:55;102773.16;;;21.09;41.00
55656;BME280;41530;52.382;5.270;2023-05-19T13:08:56;102808.16;;;21.28;40.89
55656;BME280;41530;52.382;5.270;2023-05-19T13:15:46;102766.47;;;21.14;40.04
55656;BME280;41530;52.382;5.270;2023-05-19T13:19:23;102763.78;;;21.14;40.77
55656;BME280;41530;52.382;5.270;2023-05-19T13:22:16;102788.75;;;21.36;40.81
55656;BME280;41530;52.382;5.270;2023-05-19T13:28:44;102757.28;;;21.28;41.45
55656;BME280;41530;52.382;5.270;2023-05-19T13:31:55;102751.09;;;21.27;41.13
55656;BME280;41530;52.382;5.270;2023-05-19T13:37:52;102766.09;;;21.40;41.65
55656;BME280;41530;52.382;5.270;2023-05-19T13:40:46;102784.53;;;21.54;41.35
55656;BME280;41530;52.382;5.270;2023-05-19T13:47:27;102757.28;;;21.49;40.72
55656;BME280;41530;52.382;5.270;2023-05-19T13:50:39;102747.13;;;21.43;41.14
55656;BME280;41530;52.382;5.270;2023-05-19T13:56:24;102746.19;;;21.53;41.45
55656;BME280;41530;52.382;5.270;2023-05-19T14:01:47;102730.06;;;21.44;41.38
55656;BME280;41530;52.382;5.270;2023-05-19T14:04:21;102734.28;;;21.46;41.14
55656;BME280;41530;52.382;5.270;2023-05-19T14:07:02;102742.09;;;21.59;41.11
55656;BME280;41530;52.382;5.270;2023-05-19T14:10:05;102716.97;;;21.50;40.92
55656;BME280;41530;52.382;5.270;2023-05-19T14:13:06;102721.09;;;21.54;41.31
55656;BME280;41530;52.382;5.270;2023-05-19T14:16:17;102747.13;;;21.73;40.90
55656;BME280;41530;52.382;5.270;2023-05-19T14:19:27;102746.84;;;21.76;41.03
55656;BME280;41530;52.382;5.270;2023-05-19T14:22:14;102732.44;;;21.67;41.18
55656;BME280;41530;52.382;5.270;2023-05-19T14:24:46;102710.56;;;21.62;41.14
55656;BME280;41530;52.382;5.270;2023-05-19T14:27:27;102713.81;;;21.66;40.77
55656;BME280;41530;52.382;5.270;2023-05-19T14:30:10;102722.28;;;21.71;41.00
55656;BME280;41530;52.382;5.270;2023-05-19T14:32:45;102719.47;;;21.73;40.93
55656;BME280;41530;52.382;5.270;2023-05-19T14:38:45;102712.28;;;21.73;40.92
55656;BME280;41530;52.382;5.270;2023-05-19T14:42:44;102696.50;;;21.70;40.79
55656;BME280;41530;52.382;5.270;2023-05-19T14:45:17;102707.97;;;21.82;40.67
55656;BME280;41530;52.382;5.270;2023-05-19T14:48:02;102706.69;;;21.86;40.49
55656;BME280;41530;52.382;5.270;2023-05-19T14:50:46;102713.75;;;21.87;40.55
55656;BME280;41530;52.382;5.270;2023-05-19T14:53:27;102713.03;;;21.85;40.60
55656;BME280;41530;52.382;5.270;2023-05-19T14:56:02;102709.97;;;21.89;40.63
55656;BME280;41530;52.382;5.270;2023-05-19T14:58:41;102699.63;;;21.85;40.54
55656;BME280;41530;52.382;5.270;2023-05-19T15:01:10;102695.00;;;21.87;40.52
55656;BME280;41530;52.382;5.270;2023-05-19T15:04:07;102696.69;;;21.88;40.66
55656;BME280;41530;52.382;5.270;2023-05-19T15:06:48;102708.19;;;21.99;40.75
55656;BME280;41530;52.382;5.270;2023-05-19T15:09:40;102704.94;;;21.96;40.38
55656;BME280;41530;52.382;5.270;2023-05-19T15:12:39;102699.41;;;21.97;40.58
55656;BME280;41530;52.382;5.270;2023-05-19T15:15:53;102691.06;;;21.91;40.75
55656;BME280;41530;52.382;5.270;2023-05-19T15:19:13;102696.72;;;21.97;40.75
55656;BME280;41530;52.382;5.270;2023-05-19T15:21:41;102708.50;;;22.06;40.73
55656;BME280;41530;52.382;5.270;2023-05-19T15:24:18;102690.59;;;22.07;40.56
55656;BME280;41530;52.382;5.270;2023-05-19T15:26:49;102703.00;;;22.08;40.79
55656;BME280;41530;52.382;5.270;2023-05-19T15:29:29;102690.16;;;22.01;40.45
55656;BME280;41530;52.382;5.270;2023-05-19T15:32:07;102694.69;;;22.11;40.36
55656;BME280;41530;52.382;5.270;2023-05-19T15:34:41;102674.19;;;22.00;40.37
55656;BME280;41530;52.382;5.270;2023-05-19T15:37:17;102704.16;;;22.15;40.51
55656;BME280;41530;52.382;5.270;2023-05-19T15:40:15;102680.84;;;22.06;40.52
55656;BME280;41530;52.382;5.270;2023-05-19T15:43:19;102679.75;;;22.08;40.55
55656;BME280;41530;52.382;5.270;2023-05-19T15:46:29;102683.97;;;22.11;40.66
55656;BME280;41530;52.382;5.270;2023-05-19T15:52:22;102682.56;;;22.16;40.83
55656;BME280;41530;52.382;5.270;2023-05-19T15:55:38;102675.38;;;22.17;40.76